KAFW/AFW METAR and TAF weather

Enter ICAO airport designator
Station Type Date Time Source
KAFW METAR 2019/05/26 00:53 UTC NOAA

KAFW 260053Z 15017KT 9SM FEW044 OVC300 29/19 A2991 RMK AO2 PK WND 15028/0027 SLP115 T02940194


Station Type Date Time Source
KAFW Decoded METAR 2019/05/26 00:53 UTC NOAA

FORT WORTH ALLIANCE AIRPORT, TX, United States (KAFW) 32-59N 097-19W 233M
May 25, 2019 - 08:53 PM EDT / 2019.05.26 0053 UTC
Wind: from the SSE (150 degrees) at 20 MPH (17 KT):0
Visibility: 9 mile(s):0
Sky conditions: overcast
Temperature: 84.9 F (29.4 C)
Dew Point: 66.9 F (19.4 C)
Relative Humidity: 54%
Pressure (altimeter): 29.91 in. Hg (1012 hPa)
ob: KAFW 260053Z 15017KT 9SM FEW044 OVC300 29/19 A2991 RMK AO2 PK WND 15028/0027 SLP115 T02940194
cycle: 1

Station Type Date Time Source
KAFW TAF 2019/05/25 21:57 UTC NOAA

TAF
AMD KAFW 252054Z 2521/2618 17015KT P6SM SCT050 SCT300
FM260400 16011KT P6SM BKN300
FM261000 17013KT P6SM BKN020
FM261600 17015KT P6SM SCT040

Example: see airport list